Dauntless Aviation
Airports Europe United Kingdom
EGPY

Dounreay/Thurso Airport (Closed)

Thurso, UNITED KINGDOM

Airport Info
Suggest Updated Information for this Airport

Location

Latitude / Longitude: 58°35'2"N / 3°43'36"W
  58°35.034'N / 3°43.614'W
  58.5839 / -3.7269

Runway Information

Runway 04 /22

Dimensions: 3300 x 100 ft.
Surface: U
 
Runway 04
Runway 22
Latitude: 58.579444 58.586944
Longitude: -3.731389 -3.721667
Elevation: 130 ft. 130 ft.
Runway true heading: 33.4 213.4
 
Satellite photo at:
Airport distance calculator
From:
Weather Reports

METAR

EGPC
22.2nm E
EGPC 230750Z 11014KT 6000 -RADZ BKN004 14/14 Q1012
EGPA
34.2nm NE
EGPA 230750Z 13013KT 8000 -RA SCT004 BKN005 BKN010 14/14 Q1012

TAF

EGPC
22.2nm E
TAF AMD EGPC 230739Z 2307/2315 12017KT 9999 BKN012 TEMPO 2307/2315 6000 RA BKN006 PROB40 TEMPO 2307/2308 3000 BR BKN002 PROB30 TEMPO 2310/2313 3000 +RA BKN004
EGPA
34.2nm NE
TAF EGPA 230558Z 2306/2315 13014KT 9999 BKN008 PROB40 TEMPO 2306/2309 6000 BKN004 PROB40 TEMPO 2309/2315 SCT012 TEMPO 2312/2315 6000 RA PROB30 TEMPO 2313/2315 3000 +RA
Safelog

 

Dauntless Aviation

© 2007-2017 Dauntless Aviation, all rights reserved
Information provided via PilotNav comes from a variety of official and unofficial data sources. As errors are possible, do not use PilotNav for primary flight planning purposes. Verify any information that you receive via PilotNav with current and canonical charts and other official documents. The material in this database is subject to database copyrights held by Dauntless Aviation and may not be copied without the express permission of Dauntless Aviation - licenses for use of part of all of this data are available for purchase; enquire via the Dauntless Aviation helpdesk. A number of mechanisms and markers exist in the database to protect against and identify infringement / copyright. Automated queries against this website are stictly prohibited, and all activity is logged and analyzed.